sensor_id;sensor_type;location;lat;lon;timestamp;temperature;humidity
22185;DHT22;11258;52.516;13.318;2023-02-17T00:01:32;9.40;99.90
22185;DHT22;11258;52.516;13.318;2023-02-17T00:03:59;9.40;99.90
22185;DHT22;11258;52.516;13.318;2023-02-17T00:06:27;9.40;99.90
22185;DHT22;11258;52.516;13.318;2023-02-17T00:08:54;9.30;99.90
22185;DHT22;11258;52.516;13.318;2023-02-17T00:11:19;9.30;99.90
22185;DHT22;11258;52.516;13.318;2023-02-17T00:13:45;9.30;99.90
22185;DHT22;11258;52.516;13.318;2023-02-17T00:16:17;9.30;99.90
22185;DHT22;11258;52.516;13.318;2023-02-17T00:18:43;9.20;99.90
22185;DHT22;11258;52.516;13.318;2023-02-17T00:21:18;9.20;99.90
22185;DHT22;11258;52.516;13.318;2023-02-17T00:23:44;9.20;99.90
22185;DHT22;11258;52.516;13.318;2023-02-17T00:26:11;9.20;99.90
22185;DHT22;11258;52.516;13.318;2023-02-17T00:28:37;9.20;99.90
22185;DHT22;11258;52.516;13.318;2023-02-17T00:31:14;9.10;99.90
22185;DHT22;11258;52.516;13.318;2023-02-17T00:33:40;9.10;99.90
22185;DHT22;11258;52.516;13.318;2023-02-17T00:36:09;9.10;99.90
22185;DHT22;11258;52.516;13.318;2023-02-17T00:38:35;9.10;99.90
22185;DHT22;11258;52.516;13.318;2023-02-17T00:41:00;9.00;99.90
22185;DHT22;11258;52.516;13.318;2023-02-17T00:43:26;9.00;99.90
22185;DHT22;11258;52.516;13.318;2023-02-17T00:45:52;9.00;99.90
22185;DHT22;11258;52.516;13.318;2023-02-17T00:48:18;9.00;99.90
22185;DHT22;11258;52.516;13.318;2023-02-17T00:50:44;9.00;99.90
22185;DHT22;11258;52.516;13.318;2023-02-17T00:53:09;9.00;99.90
22185;DHT22;11258;52.516;13.318;2023-02-17T00:55:35;8.90;99.90
22185;DHT22;11258;52.516;13.318;2023-02-17T00:58:01;8.90;99.90
22185;DHT22;11258;52.516;13.318;2023-02-17T01:00:26;8.80;99.90
22185;DHT22;11258;52.516;13.318;2023-02-17T01:02:52;8.80;99.90
22185;DHT22;11258;52.516;13.318;2023-02-17T01:05:17;8.80;99.90
22185;DHT22;11258;52.516;13.318;2023-02-17T01:07:43;8.80;99.90
22185;DHT22;11258;52.516;13.318;2023-02-17T01:10:09;8.80;99.90
22185;DHT22;11258;52.516;13.318;2023-02-17T01:12:35;8.80;99.90
22185;DHT22;11258;52.516;13.318;2023-02-17T01:15:01;8.70;99.90
22185;DHT22;11258;52.516;13.318;2023-02-17T01:17:26;8.70;99.90
22185;DHT22;11258;52.516;13.318;2023-02-17T01:19:52;8.70;99.90
22185;DHT22;11258;52.516;13.318;2023-02-17T01:22:18;8.70;99.90
22185;DHT22;11258;52.516;13.318;2023-02-17T01:24:43;8.70;99.90
22185;DHT22;11258;52.516;13.318;2023-02-17T01:27:09;8.80;99.90
22185;DHT22;11258;52.516;13.318;2023-02-17T01:29:34;8.80;99.90
22185;DHT22;11258;52.516;13.318;2023-02-17T01:32:00;8.80;99.90
22185;DHT22;11258;52.516;13.318;2023-02-17T01:34:26;8.80;99.90
22185;DHT22;11258;52.516;13.318;2023-02-17T01:36:52;8.70;99.90
22185;DHT22;11258;52.516;13.318;2023-02-17T01:39:17;8.80;99.90
22185;DHT22;11258;52.516;13.318;2023-02-17T01:41:43;8.70;99.90
22185;DHT22;11258;52.516;13.318;2023-02-17T01:46:39;8.80;99.90
22185;DHT22;11258;52.516;13.318;2023-02-17T01:51:52;8.70;99.90
22185;DHT22;11258;52.516;13.318;2023-02-17T01:54:41;8.80;99.90
22185;DHT22;11258;52.516;13.318;2023-02-17T01:57:10;8.70;99.90
22185;DHT22;11258;52.516;13.318;2023-02-17T01:59:37;8.80;99.90
22185;DHT22;11258;52.516;13.318;2023-02-17T02:02:04;8.80;99.90
22185;DHT22;11258;52.516;13.318;2023-02-17T02:04:33;8.80;99.90
22185;DHT22;11258;52.516;13.318;2023-02-17T02:06:59;8.80;99.90
22185;DHT22;11258;52.516;13.318;2023-02-17T02:09:31;8.80;99.90
22185;DHT22;11258;52.516;13.318;2023-02-17T02:11:59;8.80;99.90
22185;DHT22;11258;52.516;13.318;2023-02-17T02:14:25;8.70;99.90
22185;DHT22;11258;52.516;13.318;2023-02-17T02:17:38;8.60;99.90
22185;DHT22;11258;52.516;13.318;2023-02-17T02:20:15;8.60;99.90
22185;DHT22;11258;52.516;13.318;2023-02-17T02:23:10;8.60;99.90
22185;DHT22;11258;52.516;13.318;2023-02-17T02:31:22;8.50;99.90
22185;DHT22;11258;52.516;13.318;2023-02-17T02:33:55;8.50;99.90
22185;DHT22;11258;52.516;13.318;2023-02-17T02:36:28;8.60;99.90
22185;DHT22;11258;52.516;13.318;2023-02-17T02:41:35;8.40;99.90
22185;DHT22;11258;52.516;13.318;2023-02-17T02:44:08;8.40;99.90
22185;DHT22;11258;52.516;13.318;2023-02-17T02:46:34;8.40;99.90
22185;DHT22;11258;52.516;13.318;2023-02-17T02:49:00;8.40;99.90
22185;DHT22;11258;52.516;13.318;2023-02-17T02:57:36;8.40;99.90
22185;DHT22;11258;52.516;13.318;2023-02-17T03:02:44;8.40;99.90
22185;DHT22;11258;52.516;13.318;2023-02-17T03:08:15;8.30;99.90
22185;DHT22;11258;52.516;13.318;2023-02-17T03:10:48;8.40;99.90
22185;DHT22;11258;52.516;13.318;2023-02-17T03:13:15;8.40;99.90
22185;DHT22;11258;52.516;13.318;2023-02-17T03:15:42;8.30;99.90
22185;DHT22;11258;52.516;13.318;2023-02-17T03:18:07;8.30;99.90
22185;DHT22;11258;52.516;13.318;2023-02-17T03:20:36;8.30;99.90
22185;DHT22;11258;52.516;13.318;2023-02-17T03:23:04;8.30;99.90
22185;DHT22;11258;52.516;13.318;2023-02-17T03:25:30;8.30;99.90
22185;DHT22;11258;52.516;13.318;2023-02-17T03:27:56;8.20;99.90
22185;DHT22;11258;52.516;13.318;2023-02-17T03:30:22;8.30;99.90
22185;DHT22;11258;52.516;13.318;2023-02-17T03:32:48;8.30;99.90
22185;DHT22;11258;52.516;13.318;2023-02-17T03:35:13;8.30;99.90
22185;DHT22;11258;52.516;13.318;2023-02-17T03:37:39;8.40;99.90
22185;DHT22;11258;52.516;13.318;2023-02-17T03:40:13;8.40;99.90
22185;DHT22;11258;52.516;13.318;2023-02-17T03:42:38;8.40;99.90
22185;DHT22;11258;52.516;13.318;2023-02-17T03:45:04;8.40;99.90
22185;DHT22;11258;52.516;13.318;2023-02-17T03:47:30;8.40;99.90
22185;DHT22;11258;52.516;13.318;2023-02-17T03:49:56;8.40;99.90
22185;DHT22;11258;52.516;13.318;2023-02-17T03:52:21;8.40;99.90
22185;DHT22;11258;52.516;13.318;2023-02-17T03:54:47;8.40;99.90
22185;DHT22;11258;52.516;13.318;2023-02-17T03:57:13;8.40;99.90
22185;DHT22;11258;52.516;13.318;2023-02-17T03:59:38;8.40;99.90
22185;DHT22;11258;52.516;13.318;2023-02-17T04:02:04;8.40;99.90
22185;DHT22;11258;52.516;13.318;2023-02-17T04:04:29;8.40;99.90
22185;DHT22;11258;52.516;13.318;2023-02-17T04:06:55;8.40;99.90
22185;DHT22;11258;52.516;13.318;2023-02-17T04:09:21;8.40;99.90
22185;DHT22;11258;52.516;13.318;2023-02-17T04:11:46;8.40;99.90
22185;DHT22;11258;52.516;13.318;2023-02-17T04:14:12;8.40;99.90
22185;DHT22;11258;52.516;13.318;2023-02-17T04:16:37;8.40;99.90
22185;DHT22;11258;52.516;13.318;2023-02-17T04:19:05;8.40;99.90
22185;DHT22;11258;52.516;13.318;2023-02-17T04:21:31;8.50;99.90
22185;DHT22;11258;52.516;13.318;2023-02-17T04:23:59;8.50;99.90
22185;DHT22;11258;52.516;13.318;2023-02-17T04:26:25;8.50;99.90
22185;DHT22;11258;52.516;13.318;2023-02-17T04:28:51;8.50;99.90
22185;DHT22;11258;52.516;13.318;2023-02-17T04:31:17;8.40;99.90
22185;DHT22;11258;52.516;13.318;2023-02-17T04:33:42;8.40;99.90
22185;DHT22;11258;52.516;13.318;2023-02-17T04:36:08;8.50;99.90
22185;DHT22;11258;52.516;13.318;2023-02-17T04:38:34;8.50;99.90
22185;DHT22;11258;52.516;13.318;2023-02-17T04:41:01;8.50;99.90
22185;DHT22;11258;52.516;13.318;2023-02-17T04:43:27;8.50;99.90
22185;DHT22;11258;52.516;13.318;2023-02-17T04:45:53;8.50;99.90
22185;DHT22;11258;52.516;13.318;2023-02-17T04:48:19;8.50;99.90
22185;DHT22;11258;52.516;13.318;2023-02-17T04:50:45;8.50;99.90
22185;DHT22;11258;52.516;13.318;2023-02-17T04:53:11;8.50;99.90
22185;DHT22;11258;52.516;13.318;2023-02-17T04:55:38;8.50;99.90
22185;DHT22;11258;52.516;13.318;2023-02-17T04:58:04;8.50;99.90
22185;DHT22;11258;52.516;13.318;2023-02-17T05:00:30;8.50;99.90
22185;DHT22;11258;52.516;13.318;2023-02-17T05:02:55;8.50;99.90
22185;DHT22;11258;52.516;13.318;2023-02-17T05:05:21;8.50;99.90
22185;DHT22;11258;52.516;13.318;2023-02-17T05:07:47;8.50;99.90
22185;DHT22;11258;52.516;13.318;2023-02-17T05:10:15;8.50;99.90
22185;DHT22;11258;52.516;13.318;2023-02-17T05:12:41;8.50;99.90
22185;DHT22;11258;52.516;13.318;2023-02-17T05:15:07;8.60;99.90
22185;DHT22;11258;52.516;13.318;2023-02-17T05:17:33;8.50;99.90
22185;DHT22;11258;52.516;13.318;2023-02-17T05:19:58;8.60;99.90
22185;DHT22;11258;52.516;13.318;2023-02-17T05:22:24;8.60;99.90
22185;DHT22;11258;52.516;13.318;2023-02-17T05:24:50;8.60;99.90
22185;DHT22;11258;52.516;13.318;2023-02-17T05:27:15;8.50;99.90
22185;DHT22;11258;52.516;13.318;2023-02-17T05:29:41;8.50;99.90
22185;DHT22;11258;52.516;13.318;2023-02-17T05:32:07;8.50;99.90
22185;DHT22;11258;52.516;13.318;2023-02-17T05:34:32;8.50;99.90
22185;DHT22;11258;52.516;13.318;2023-02-17T05:36:58;8.50;99.90
22185;DHT22;11258;52.516;13.318;2023-02-17T05:39:24;8.50;99.90
22185;DHT22;11258;52.516;13.318;2023-02-17T05:41:49;8.50;99.90
22185;DHT22;11258;52.516;13.318;2023-02-17T05:44:15;8.50;99.90
22185;DHT22;11258;52.516;13.318;2023-02-17T05:46:41;8.50;99.90
22185;DHT22;11258;52.516;13.318;2023-02-17T05:49:07;8.60;99.90
22185;DHT22;11258;52.516;13.318;2023-02-17T05:51:32;8.60;99.90
22185;DHT22;11258;52.516;13.318;2023-02-17T05:53:58;8.60;99.90
22185;DHT22;11258;52.516;13.318;2023-02-17T05:56:24;8.50;99.90
22185;DHT22;11258;52.516;13.318;2023-02-17T05:58:49;8.50;99.90
22185;DHT22;11258;52.516;13.318;2023-02-17T06:01:15;8.50;99.90
22185;DHT22;11258;52.516;13.318;2023-02-17T06:03:40;8.50;99.90
22185;DHT22;11258;52.516;13.318;2023-02-17T06:06:07;8.50;99.90
22185;DHT22;11258;52.516;13.318;2023-02-17T06:08:33;8.60;99.90
22185;DHT22;11258;52.516;13.318;2023-02-17T06:10:59;8.60;99.90
22185;DHT22;11258;52.516;13.318;2023-02-17T06:13:24;8.60;99.90
22185;DHT22;11258;52.516;13.318;2023-02-17T06:15:50;8.60;99.90
22185;DHT22;11258;52.516;13.318;2023-02-17T06:18:16;8.60;99.90
22185;DHT22;11258;52.516;13.318;2023-02-17T06:20:42;8.60;99.90
22185;DHT22;11258;52.516;13.318;2023-02-17T06:23:07;8.60;99.90
22185;DHT22;11258;52.516;13.318;2023-02-17T06:25:33;8.60;99.90
22185;DHT22;11258;52.516;13.318;2023-02-17T06:27:59;8.70;99.90
22185;DHT22;11258;52.516;13.318;2023-02-17T06:30:24;8.70;99.90
22185;DHT22;11258;52.516;13.318;2023-02-17T06:32:50;8.70;99.90
22185;DHT22;11258;52.516;13.318;2023-02-17T06:35:16;8.70;99.90
22185;DHT22;11258;52.516;13.318;2023-02-17T06:37:41;8.70;99.90
22185;DHT22;11258;52.516;13.318;2023-02-17T06:40:08;8.70;99.90
22185;DHT22;11258;52.516;13.318;2023-02-17T06:42:34;8.70;99.90
22185;DHT22;11258;52.516;13.318;2023-02-17T06:44:59;8.70;99.90
22185;DHT22;11258;52.516;13.318;2023-02-17T06:47:27;8.80;99.90
22185;DHT22;11258;52.516;13.318;2023-02-17T06:49:53;8.80;99.90
22185;DHT22;11258;52.516;13.318;2023-02-17T06:52:18;8.80;99.90
22185;DHT22;11258;52.516;13.318;2023-02-17T06:54:44;8.90;99.90
22185;DHT22;11258;52.516;13.318;2023-02-17T06:57:11;8.90;99.90
22185;DHT22;11258;52.516;13.318;2023-02-17T06:59:37;8.90;99.90
22185;DHT22;11258;52.516;13.318;2023-02-17T07:02:03;8.90;99.90
22185;DHT22;11258;52.516;13.318;2023-02-17T07:04:28;8.90;99.90
22185;DHT22;11258;52.516;13.318;2023-02-17T07:06:54;9.00;99.90
22185;DHT22;11258;52.516;13.318;2023-02-17T07:09:20;9.00;99.90
22185;DHT22;11258;52.516;13.318;2023-02-17T07:11:45;9.10;99.90
22185;DHT22;11258;52.516;13.318;2023-02-17T07:14:11;9.00;99.90
22185;DHT22;11258;52.516;13.318;2023-02-17T07:16:36;9.10;99.90
22185;DHT22;11258;52.516;13.318;2023-02-17T07:19:03;9.10;99.90
22185;DHT22;11258;52.516;13.318;2023-02-17T07:21:29;9.20;99.90
22185;DHT22;11258;52.516;13.318;2023-02-17T07:23:55;9.20;99.90
22185;DHT22;11258;52.516;13.318;2023-02-17T07:26:20;9.20;99.90
22185;DHT22;11258;52.516;13.318;2023-02-17T07:28:46;9.30;99.90
22185;DHT22;11258;52.516;13.318;2023-02-17T07:31:15;9.30;99.90
22185;DHT22;11258;52.516;13.318;2023-02-17T07:33:41;9.30;99.90
22185;DHT22;11258;52.516;13.318;2023-02-17T07:36:12;9.40;99.90
22185;DHT22;11258;52.516;13.318;2023-02-17T07:38:39;9.40;99.90
22185;DHT22;11258;52.516;13.318;2023-02-17T07:41:07;9.40;99.90
22185;DHT22;11258;52.516;13.318;2023-02-17T07:43:33;9.50;99.90
22185;DHT22;11258;52.516;13.318;2023-02-17T07:45:59;9.60;99.90
22185;DHT22;11258;52.516;13.318;2023-02-17T07:48:25;9.60;99.90
22185;DHT22;11258;52.516;13.318;2023-02-17T07:50:50;9.60;99.90
22185;DHT22;11258;52.516;13.318;2023-02-17T07:53:16;9.60;99.90
22185;DHT22;11258;52.516;13.318;2023-02-17T07:55:41;9.70;99.90
22185;DHT22;11258;52.516;13.318;2023-02-17T07:58:07;9.70;99.90
22185;DHT22;11258;52.516;13.318;2023-02-17T08:00:33;9.70;99.90
22185;DHT22;11258;52.516;13.318;2023-02-17T08:02:58;9.70;99.90
22185;DHT22;11258;52.516;13.318;2023-02-17T08:05:24;9.80;99.90
22185;DHT22;11258;52.516;13.318;2023-02-17T08:07:50;9.80;99.90
22185;DHT22;11258;52.516;13.318;2023-02-17T08:10:36;9.80;99.90
22185;DHT22;11258;52.516;13.318;2023-02-17T08:13:21;9.80;99.90
22185;DHT22;11258;52.516;13.318;2023-02-17T08:15:47;9.70;99.90
22185;DHT22;11258;52.516;13.318;2023-02-17T08:18:13;9.80;99.90
22185;DHT22;11258;52.516;13.318;2023-02-17T08:20:38;9.80;99.90
22185;DHT22;11258;52.516;13.318;2023-02-17T08:23:04;9.80;99.90
22185;DHT22;11258;52.516;13.318;2023-02-17T08:25:31;9.80;99.90
22185;DHT22;11258;52.516;13.318;2023-02-17T08:27:57;9.80;99.90
22185;DHT22;11258;52.516;13.318;2023-02-17T08:30:23;9.80;99.90
22185;DHT22;11258;52.516;13.318;2023-02-17T08:32:49;9.80;99.90
22185;DHT22;11258;52.516;13.318;2023-02-17T08:35:15;9.80;99.90
22185;DHT22;11258;52.516;13.318;2023-02-17T08:37:43;9.80;99.90
22185;DHT22;11258;52.516;13.318;2023-02-17T08:40:09;9.70;99.90
22185;DHT22;11258;52.516;13.318;2023-02-17T08:42:35;9.70;99.90
22185;DHT22;11258;52.516;13.318;2023-02-17T08:45:01;9.80;99.90
22185;DHT22;11258;52.516;13.318;2023-02-17T08:47:27;9.80;99.90
22185;DHT22;11258;52.516;13.318;2023-02-17T08:49:52;9.80;99.90
22185;DHT22;11258;52.516;13.318;2023-02-17T08:52:19;9.80;99.90
22185;DHT22;11258;52.516;13.318;2023-02-17T08:54:44;9.80;99.90
22185;DHT22;11258;52.516;13.318;2023-02-17T08:57:10;9.80;99.90
22185;DHT22;11258;52.516;13.318;2023-02-17T08:59:36;9.80;99.90
22185;DHT22;11258;52.516;13.318;2023-02-17T09:02:02;9.80;99.90
22185;DHT22;11258;52.516;13.318;2023-02-17T09:04:28;9.90;99.90
22185;DHT22;11258;52.516;13.318;2023-02-17T09:06:54;9.90;99.90
22185;DHT22;11258;52.516;13.318;2023-02-17T09:09:22;10.00;99.90
22185;DHT22;11258;52.516;13.318;2023-02-17T09:11:51;9.90;99.90
22185;DHT22;11258;52.516;13.318;2023-02-17T09:14:20;10.00;99.90
22185;DHT22;11258;52.516;13.318;2023-02-17T09:16:49;9.90;99.90
22185;DHT22;11258;52.516;13.318;2023-02-17T09:19:15;10.00;99.90
22185;DHT22;11258;52.516;13.318;2023-02-17T09:21:40;10.00;99.90
22185;DHT22;11258;52.516;13.318;2023-02-17T09:24:06;10.00;99.90
22185;DHT22;11258;52.516;13.318;2023-02-17T09:26:32;10.00;99.90
22185;DHT22;11258;52.516;13.318;2023-02-17T09:28:59;10.00;99.90
22185;DHT22;11258;52.516;13.318;2023-02-17T09:31:45;9.90;99.90
22185;DHT22;11258;52.516;13.318;2023-02-17T09:34:11;9.90;99.90
22185;DHT22;11258;52.516;13.318;2023-02-17T09:36:39;10.00;99.90
22185;DHT22;11258;52.516;13.318;2023-02-17T09:39:05;10.00;99.90
22185;DHT22;11258;52.516;13.318;2023-02-17T09:41:42;10.00;99.90
22185;DHT22;11258;52.516;13.318;2023-02-17T09:44:41;10.10;99.90
22185;DHT22;11258;52.516;13.318;2023-02-17T09:47:16;10.00;99.90
22185;DHT22;11258;52.516;13.318;2023-02-17T09:50:06;10.00;99.90
22185;DHT22;11258;52.516;13.318;2023-02-17T09:52:34;10.00;99.90
22185;DHT22;11258;52.516;13.318;2023-02-17T09:55:41;10.00;99.90
22185;DHT22;11258;52.516;13.318;2023-02-17T09:58:35;9.90;99.90
22185;DHT22;11258;52.516;13.318;2023-02-17T10:01:00;10.00;99.90
22185;DHT22;11258;52.516;13.318;2023-02-17T10:03:32;10.00;99.90
22185;DHT22;11258;52.516;13.318;2023-02-17T10:08:47;10.00;99.90
22185;DHT22;11258;52.516;13.318;2023-02-17T10:17:19;10.00;99.90
22185;DHT22;11258;52.516;13.318;2023-02-17T10:20:03;10.00;99.90
22185;DHT22;11258;52.516;13.318;2023-02-17T10:22:30;10.00;99.90
22185;DHT22;11258;52.516;13.318;2023-02-17T10:24:56;10.10;99.90
22185;DHT22;11258;52.516;13.318;2023-02-17T10:27:45;10.00;99.90
22185;DHT22;11258;52.516;13.318;2023-02-17T10:33:05;10.00;99.90
22185;DHT22;11258;52.516;13.318;2023-02-17T10:36:09;10.10;99.90
22185;DHT22;11258;52.516;13.318;2023-02-17T10:38:47;10.10;99.90
22185;DHT22;11258;52.516;13.318;2023-02-17T10:41:19;10.30;99.90
22185;DHT22;11258;52.516;13.318;2023-02-17T10:43:47;10.30;99.90
22185;DHT22;11258;52.516;13.318;2023-02-17T10:46:15;10.30;99.90
22185;DHT22;11258;52.516;13.318;2023-02-17T10:48:51;10.40;99.90
22185;DHT22;11258;52.516;13.318;2023-02-17T10:51:22;10.30;99.90
22185;DHT22;11258;52.516;13.318;2023-02-17T10:54:11;10.40;99.90
22185;DHT22;11258;52.516;13.318;2023-02-17T10:56:46;10.50;99.90
22185;DHT22;11258;52.516;13.318;2023-02-17T10:59:40;10.50;99.90
22185;DHT22;11258;52.516;13.318;2023-02-17T11:02:34;10.50;99.90
22185;DHT22;11258;52.516;13.318;2023-02-17T11:05:00;10.50;99.90
22185;DHT22;11258;52.516;13.318;2023-02-17T11:07:33;10.50;99.90
22185;DHT22;11258;52.516;13.318;2023-02-17T11:10:02;10.50;99.90
22185;DHT22;11258;52.516;13.318;2023-02-17T11:12:37;10.50;99.90
22185;DHT22;11258;52.516;13.318;2023-02-17T11:15:18;10.60;99.90
22185;DHT22;11258;52.516;13.318;2023-02-17T11:17:45;10.60;99.90
22185;DHT22;11258;52.516;13.318;2023-02-17T11:22:47;10.60;99.90
22185;DHT22;11258;52.516;13.318;2023-02-17T11:28:11;10.70;99.90
22185;DHT22;11258;52.516;13.318;2023-02-17T11:30:39;10.70;99.90
22185;DHT22;11258;52.516;13.318;2023-02-17T11:33:20;10.80;99.90
22185;DHT22;11258;52.516;13.318;2023-02-17T11:35:53;10.80;99.90
22185;DHT22;11258;52.516;13.318;2023-02-17T11:38:24;10.80;99.90
22185;DHT22;11258;52.516;13.318;2023-02-17T11:41:01;10.80;99.90
22185;DHT22;11258;52.516;13.318;2023-02-17T11:43:29;10.90;99.90
22185;DHT22;11258;52.516;13.318;2023-02-17T11:46:10;10.90;99.90
22185;DHT22;11258;52.516;13.318;2023-02-17T11:54:41;11.00;99.90
22185;DHT22;11258;52.516;13.318;2023-02-17T12:05:24;11.10;99.90
22185;DHT22;11258;52.516;13.318;2023-02-17T12:08:03;11.10;99.90
22185;DHT22;11258;52.516;13.318;2023-02-17T12:35:42;11.60;99.90
22185;DHT22;11258;52.516;13.318;2023-02-17T12:38:14;11.70;99.90
22185;DHT22;11258;52.516;13.318;2023-02-17T12:40:51;11.70;99.90
22185;DHT22;11258;52.516;13.318;2023-02-17T12:43:41;11.80;99.90
22185;DHT22;11258;52.516;13.318;2023-02-17T12:46:15;11.80;99.90
22185;DHT22;11258;52.516;13.318;2023-02-17T12:48:49;11.80;99.90
22185;DHT22;11258;52.516;13.318;2023-02-17T12:51:25;11.80;99.90
22185;DHT22;11258;52.516;13.318;2023-02-17T12:56:37;12.00;99.90
22185;DHT22;11258;52.516;13.318;2023-02-17T12:59:16;12.00;99.90
22185;DHT22;11258;52.516;13.318;2023-02-17T13:04:25;12.00;99.90
22185;DHT22;11258;52.516;13.318;2023-02-17T13:06:58;12.00;99.90
22185;DHT22;11258;52.516;13.318;2023-02-17T13:09:36;11.90;99.90
22185;DHT22;11258;52.516;13.318;2023-02-17T13:12:39;11.90;99.90
22185;DHT22;11258;52.516;13.318;2023-02-17T13:15:35;11.90;99.90
22185;DHT22;11258;52.516;13.318;2023-02-17T13:18:27;11.90;99.90
22185;DHT22;11258;52.516;13.318;2023-02-17T13:24:18;12.00;99.90
22185;DHT22;11258;52.516;13.318;2023-02-17T13:26:55;12.00;99.90
22185;DHT22;11258;52.516;13.318;2023-02-17T13:29:41;12.00;99.90
22185;DHT22;11258;52.516;13.318;2023-02-17T13:32:09;12.10;99.90
22185;DHT22;11258;52.516;13.318;2023-02-17T13:34:36;12.20;99.90
22185;DHT22;11258;52.516;13.318;2023-02-17T13:37:40;12.20;99.90
22185;DHT22;11258;52.516;13.318;2023-02-17T13:42:46;12.30;99.90
22185;DHT22;11258;52.516;13.318;2023-02-17T13:47:45;12.30;99.90
22185;DHT22;11258;52.516;13.318;2023-02-17T13:50:36;12.40;99.90
22185;DHT22;11258;52.516;13.318;2023-02-17T13:53:19;12.30;99.90
22185;DHT22;11258;52.516;13.318;2023-02-17T13:55:45;12.30;99.90
22185;DHT22;11258;52.516;13.318;2023-02-17T13:58:11;12.40;99.90
22185;DHT22;11258;52.516;13.318;2023-02-17T14:00:37;12.40;99.90
22185;DHT22;11258;52.516;13.318;2023-02-17T14:05:48;12.40;99.90
22185;DHT22;11258;52.516;13.318;2023-02-17T14:08:26;12.50;99.90
22185;DHT22;11258;52.516;13.318;2023-02-17T14:10:52;12.50;99.90
22185;DHT22;11258;52.516;13.318;2023-02-17T14:13:18;12.50;99.90
22185;DHT22;11258;52.516;13.318;2023-02-17T14:15:53;12.60;99.90
22185;DHT22;11258;52.516;13.318;2023-02-17T14:21:05;12.70;99.90
22185;DHT22;11258;52.516;13.318;2023-02-17T14:28:58;12.70;99.90
22185;DHT22;11258;52.516;13.318;2023-02-17T14:31:24;12.70;99.90
22185;DHT22;11258;52.516;13.318;2023-02-17T14:34:01;12.70;99.90
22185;DHT22;11258;52.516;13.318;2023-02-17T14:36:30;12.70;99.90
22185;DHT22;11258;52.516;13.318;2023-02-17T14:38:56;12.70;99.90
22185;DHT22;11258;52.516;13.318;2023-02-17T14:41:23;12.70;99.90
22185;DHT22;11258;52.516;13.318;2023-02-17T14:43:48;12.70;99.90
22185;DHT22;11258;52.516;13.318;2023-02-17T14:46:14;12.70;99.90
22185;DHT22;11258;52.516;13.318;2023-02-17T14:48:44;12.60;99.90
22185;DHT22;11258;52.516;13.318;2023-02-17T14:51:14;12.50;99.90
22185;DHT22;11258;52.516;13.318;2023-02-17T14:53:41;12.40;99.90
22185;DHT22;11258;52.516;13.318;2023-02-17T14:57:10;12.30;99.90
22185;DHT22;11258;52.516;13.318;2023-02-17T14:59:04;12.10;99.90
22185;DHT22;11258;52.516;13.318;2023-02-17T15:01:30;12.00;99.90
22185;DHT22;11258;52.516;13.318;2023-02-17T15:03:55;11.90;99.90
22185;DHT22;11258;52.516;13.318;2023-02-17T15:06:29;11.90;99.90
22185;DHT22;11258;52.516;13.318;2023-02-17T15:08:56;11.90;99.90
22185;DHT22;11258;52.516;13.318;2023-02-17T15:11:31;11.80;99.90
22185;DHT22;11258;52.516;13.318;2023-02-17T15:14:03;11.80;99.90
22185;DHT22;11258;52.516;13.318;2023-02-17T15:16:29;11.80;99.90
22185;DHT22;11258;52.516;13.318;2023-02-17T15:18:55;11.70;99.90
22185;DHT22;11258;52.516;13.318;2023-02-17T15:21:29;11.70;99.90
22185;DHT22;11258;52.516;13.318;2023-02-17T15:23:57;11.70;99.90
22185;DHT22;11258;52.516;13.318;2023-02-17T15:26:23;11.70;99.90
22185;DHT22;11258;52.516;13.318;2023-02-17T15:28:49;11.70;99.90
22185;DHT22;11258;52.516;13.318;2023-02-17T15:31:16;11.70;99.90
22185;DHT22;11258;52.516;13.318;2023-02-17T15:33:54;11.70;99.90
22185;DHT22;11258;52.516;13.318;2023-02-17T15:36:21;11.70;99.90
22185;DHT22;11258;52.516;13.318;2023-02-17T15:38:47;11.60;99.90
22185;DHT22;11258;52.516;13.318;2023-02-17T15:41:21;11.60;99.90
22185;DHT22;11258;52.516;13.318;2023-02-17T15:43:49;11.60;99.90
22185;DHT22;11258;52.516;13.318;2023-02-17T15:46:17;11.60;99.90
22185;DHT22;11258;52.516;13.318;2023-02-17T15:48:45;11.60;99.90
22185;DHT22;11258;52.516;13.318;2023-02-17T15:51:14;11.60;99.90
22185;DHT22;11258;52.516;13.318;2023-02-17T15:53:42;11.60;99.90
22185;DHT22;11258;52.516;13.318;2023-02-17T15:56:30;11.60;99.90
22185;DHT22;11258;52.516;13.318;2023-02-17T15:58:57;11.60;99.90
22185;DHT22;11258;52.516;13.318;2023-02-17T16:01:30;11.60;99.90
22185;DHT22;11258;52.516;13.318;2023-02-17T16:03:57;11.70;99.90
22185;DHT22;11258;52.516;13.318;2023-02-17T16:06:24;11.70;99.90
22185;DHT22;11258;52.516;13.318;2023-02-17T16:08:50;11.70;99.90
22185;DHT22;11258;52.516;13.318;2023-02-17T16:11:16;11.70;99.90
22185;DHT22;11258;52.516;13.318;2023-02-17T16:13:44;11.70;99.90
22185;DHT22;11258;52.516;13.318;2023-02-17T16:16:25;11.70;99.90
22185;DHT22;11258;52.516;13.318;2023-02-17T16:18:57;11.70;99.90
22185;DHT22;11258;52.516;13.318;2023-02-17T16:21:22;11.70;99.90
22185;DHT22;11258;52.516;13.318;2023-02-17T16:23:48;11.80;99.90
22185;DHT22;11258;52.516;13.318;2023-02-17T16:26:30;11.80;99.90
22185;DHT22;11258;52.516;13.318;2023-02-17T16:28:57;11.80;99.90
22185;DHT22;11258;52.516;13.318;2023-02-17T16:31:23;11.80;99.90
22185;DHT22;11258;52.516;13.318;2023-02-17T16:33:49;11.90;99.90
22185;DHT22;11258;52.516;13.318;2023-02-17T16:36:18;11.80;99.90
22185;DHT22;11258;52.516;13.318;2023-02-17T16:38:47;11.80;99.90
22185;DHT22;11258;52.516;13.318;2023-02-17T16:41:14;11.90;99.90
22185;DHT22;11258;52.516;13.318;2023-02-17T16:43:41;11.90;99.90
22185;DHT22;11258;52.516;13.318;2023-02-17T16:46:23;11.90;99.90
22185;DHT22;11258;52.516;13.318;2023-02-17T16:48:52;12.00;99.90
22185;DHT22;11258;52.516;13.318;2023-02-17T16:51:18;12.00;99.90
22185;DHT22;11258;52.516;13.318;2023-02-17T16:53:43;12.00;99.90
22185;DHT22;11258;52.516;13.318;2023-02-17T16:56:26;12.00;99.90
22185;DHT22;11258;52.516;13.318;2023-02-17T16:58:54;12.00;99.90
22185;DHT22;11258;52.516;13.318;2023-02-17T17:01:20;12.10;99.90
22185;DHT22;11258;52.516;13.318;2023-02-17T17:03:45;12.10;99.90
22185;DHT22;11258;52.516;13.318;2023-02-17T17:06:38;12.10;99.90
22185;DHT22;11258;52.516;13.318;2023-02-17T17:09:06;12.00;99.90
22185;DHT22;11258;52.516;13.318;2023-02-17T17:11:32;12.00;99.90
22185;DHT22;11258;52.516;13.318;2023-02-17T17:13:58;12.00;99.90
22185;DHT22;11258;52.516;13.318;2023-02-17T17:16:29;12.00;99.90
22185;DHT22;11258;52.516;13.318;2023-02-17T17:18:56;11.90;99.90
22185;DHT22;11258;52.516;13.318;2023-02-17T17:21:22;11.90;99.90
22185;DHT22;11258;52.516;13.318;2023-02-17T17:23:48;11.90;99.90
22185;DHT22;11258;52.516;13.318;2023-02-17T17:28:56;11.90;99.90